Time;durP1;ratioP1;P1;durP2;ratioP2;P2;SDS_P1;SDS_P2;PMS_P1;PMS_P2;Temp;Humidity;BMP_temperature;BMP_pressure;BME280_temperature;BME280_humidity;BME280_pressure;Samples;Min_cycle;Max_cycle;Signal;HPM_P1;HPM_P2
2022/09/22 00:00:41;;;;;;;4.45;2.40;;;10.20;99.90;;;;;;4989317;28;20506;-63
2022/09/22 00:03:07;;;;;;;6.93;2.20;;;10.10;99.90;;;;;;4989564;28;20394;-62
2022/09/22 00:05:33;;;;;;;2.72;2.13;;;10.00;99.90;;;;;;4987632;28;20426;-63
2022/09/22 00:08:00;;;;;;;3.42;2.10;;;10.00;99.90;;;;;;4990502;28;20026;-62
2022/09/22 00:10:27;;;;;;;2.05;1.58;;;10.00;99.90;;;;;;4988834;28;20101;-62
2022/09/22 00:12:54;;;;;;;3.22;1.90;;;10.00;99.90;;;;;;4988743;28;20474;-62
2022/09/22 00:15:20;;;;;;;2.22;1.70;;;10.00;99.90;;;;;;4988263;28;20537;-62
2022/09/22 00:17:46;;;;;;;3.05;1.92;;;10.00;99.90;;;;;;4989314;28;20038;-63
2022/09/22 00:20:12;;;;;;;3.92;1.90;;;10.00;99.90;;;;;;4986054;28;20065;-63
2022/09/22 00:22:39;;;;;;;2.15;1.70;;;10.00;99.90;;;;;;4990434;28;20544;-63
2022/09/22 00:25:06;;;;;;;2.03;1.90;;;10.00;99.90;;;;;;4990111;28;20031;-63
2022/09/22 00:27:31;;;;;;;2.42;1.77;;;9.90;99.90;;;;;;4988250;28;20045;-64
2022/09/22 00:29:57;;;;;;;1.80;1.30;;;9.80;99.90;;;;;;4985464;28;20023;-63
2022/09/22 00:32:23;;;;;;;2.95;1.60;;;9.80;99.90;;;;;;4984842;28;20035;-61
2022/09/22 00:34:49;;;;;;;1.80;1.60;;;9.70;99.90;;;;;;4990405;28;20482;-62
2022/09/22 00:37:15;;;;;;;2.95;1.80;;;9.70;99.90;;;;;;4988310;28;20118;-62
2022/09/22 00:39:42;;;;;;;1.90;1.33;;;9.70;99.90;;;;;;4980259;28;20474;-62
2022/09/22 00:42:11;;;;;;;3.53;1.30;;;9.70;99.90;;;;;;4981254;28;20031;-63
2022/09/22 00:44:42;;;;;;;2.40;1.50;;;9.60;99.90;;;;;;4990452;28;20026;-62
2022/09/22 00:47:13;;;;;;;1.75;1.48;;;9.60;99.90;;;;;;4992870;28;20041;-62
2022/09/22 00:49:51;;;;;;;2.45;1.75;;;9.60;99.90;;;;;;4990124;28;20110;-62
2022/09/22 00:52:27;;;;;;;2.53;1.65;;;9.60;99.90;;;;;;4980357;28;20112;-62
2022/09/22 00:54:57;;;;;;;2.00;1.20;;;9.60;99.90;;;;;;4987316;28;20053;-62
2022/09/22 00:57:27;;;;;;;3.42;1.75;;;9.50;99.90;;;;;;4986586;28;20034;-63
2022/09/22 00:59:53;;;;;;;2.97;2.00;;;9.50;99.90;;;;;;4990024;28;20030;-63
2022/09/22 01:02:20;;;;;;;2.88;1.80;;;9.50;99.90;;;;;;4988300;28;20041;-62
2022/09/22 01:04:49;;;;;;;3.05;1.65;;;9.50;99.90;;;;;;4988830;28;20030;-62
2022/09/22 01:07:15;;;;;;;2.90;1.98;;;9.50;99.90;;;;;;4987956;28;20069;-62
2022/09/22 01:09:41;;;;;;;2.22;1.73;;;9.50;99.90;;;;;;4986300;28;20054;-62
2022/09/22 01:12:07;;;;;;;1.92;1.27;;;9.40;99.90;;;;;;4989684;28;20042;-62
2022/09/22 01:14:47;;;;;;;1.67;1.30;;;9.30;99.90;;;;;;4985858;28;20061;-62
2022/09/22 01:17:34;;;;;;;2.17;1.60;;;9.30;99.90;;;;;;4987433;28;20038;-62
2022/09/22 01:20:15;;;;;;;3.53;1.90;;;9.20;99.90;;;;;;4993408;28;20042;-61
2022/09/22 01:22:45;;;;;;;3.15;2.10;;;9.10;99.90;;;;;;4992674;28;20058;-62
2022/09/22 01:25:36;;;;;;;2.58;1.75;;;9.10;99.90;;;;;;4991818;28;20042;-62
2022/09/22 01:28:39;;;;;;;3.00;1.50;;;9.10;99.90;;;;;;4990502;28;20022;-63
2022/09/22 01:31:17;;;;;;;2.55;1.33;;;9.10;99.90;;;;;;4985597;28;20037;-64
2022/09/22 01:34:04;;;;;;;2.08;1.40;;;9.10;99.90;;;;;;4991203;28;20025;-63
2022/09/22 01:36:40;;;;;;;1.67;1.15;;;9.10;99.90;;;;;;4991338;28;20127;-63
2022/09/22 01:39:15;;;;;;;2.80;1.15;;;9.10;99.90;;;;;;4991473;28;20042;-63
2022/09/22 01:42:05;;;;;;;2.42;1.95;;;9.00;99.90;;;;;;4993176;28;20157;-63
2022/09/22 01:44:48;;;;;;;2.83;2.08;;;9.00;99.90;;;;;;4983790;28;20038;-63
2022/09/22 01:47:39;;;;;;;1.63;1.30;;;9.00;99.90;;;;;;4989696;28;20039;-62
2022/09/22 01:50:33;;;;;;;2.10;1.30;;;8.90;99.90;;;;;;4992764;28;20109;-63
2022/09/22 01:53:05;;;;;;;1.60;1.05;;;8.90;99.90;;;;;;4988524;28;20046;-63
2022/09/22 01:55:37;;;;;;;2.28;1.83;;;8.80;99.90;;;;;;4980834;28;20062;-63
2022/09/22 01:58:10;;;;;;;2.92;1.67;;;8.80;99.90;;;;;;4987795;28;20034;-63
2022/09/22 02:00:40;;;;;;;2.63;2.05;;;8.80;99.90;;;;;;4985559;28;20042;-63
2022/09/22 02:03:18;;;;;;;2.70;2.17;;;8.80;99.90;;;;;;4991129;28;20498;-63
2022/09/22 02:05:55;;;;;;;3.00;2.47;;;8.70;99.90;;;;;;4976033;28;20039;-64
2022/09/22 02:08:32;;;;;;;3.03;2.47;;;8.70;99.90;;;;;;4989430;28;20124;-63
2022/09/22 02:11:03;;;;;;;3.83;2.38;;;8.70;99.90;;;;;;4993060;28;20049;-63
2022/09/22 02:13:28;;;;;;;2.55;1.50;;;8.70;99.90;;;;;;4988665;28;21020;-63
2022/09/22 02:16:00;;;;;;;1.90;1.35;;;8.70;99.90;;;;;;4992568;28;20039;-63
2022/09/22 02:18:39;;;;;;;2.05;1.70;;;8.60;99.90;;;;;;4990953;28;20077;-64
2022/09/22 02:21:05;;;;;;;5.00;2.30;;;8.60;99.90;;;;;;4986071;28;20038;-63
2022/09/22 02:23:31;;;;;;;2.47;2.10;;;8.60;99.90;;;;;;4988017;28;20459;-63
2022/09/22 02:26:00;;;;;;;1.90;1.60;;;8.50;99.90;;;;;;4991089;28;20049;-63
2022/09/22 02:28:29;;;;;;;1.92;1.42;;;8.50;99.90;;;;;;4989624;28;20479;-63
2022/09/22 02:30:57;;;;;;;2.00;1.50;;;8.40;99.90;;;;;;4992092;28;20022;-63
2022/09/22 02:33:25;;;;;;;1.60;1.17;;;8.40;99.90;;;;;;4990480;28;20041;-64
2022/09/22 02:36:00;;;;;;;1.75;1.20;;;8.40;99.90;;;;;;4981225;28;20486;-64
2022/09/22 02:38:41;;;;;;;1.80;1.42;;;8.40;99.90;;;;;;4988513;28;20513;-63
2022/09/22 02:42:05;;;;;;;2.63;1.85;;;8.40;99.90;;;;;;4990770;28;20030;-64
2022/09/22 02:45:14;;;;;;;3.05;2.25;;;8.40;99.90;;;;;;4854867;29;20037;-64
2022/09/22 02:47:44;;;;;;;3.40;2.45;;;8.40;99.90;;;;;;4849128;29;20033;-63
2022/09/22 02:50:13;;;;;;;4.78;3.13;;;8.30;99.90;;;;;;4860341;29;20113;-64
2022/09/22 02:52:39;;;;;;;4.25;1.88;;;8.30;99.90;;;;;;4860073;29;20723;-63
2022/09/22 02:55:07;;;;;;;1.98;1.60;;;8.20;99.90;;;;;;4856568;29;20462;-63
2022/09/22 02:57:33;;;;;;;2.65;1.67;;;8.20;99.90;;;;;;4856306;29;20128;-63
2022/09/22 02:59:58;;;;;;;2.72;2.33;;;8.20;99.90;;;;;;4856666;29;20578;-63
2022/09/22 03:02:24;;;;;;;2.67;1.65;;;8.20;99.90;;;;;;4862898;29;20045;-63
2022/09/22 03:04:50;;;;;;;2.17;1.58;;;8.30;99.90;;;;;;4858307;29;20068;-64
2022/09/22 03:07:17;;;;;;;2.10;1.50;;;8.20;99.90;;;;;;4855938;29;20049;-63
2022/09/22 03:09:42;;;;;;;1.73;1.40;;;8.20;99.90;;;;;;4856208;29;20414;-63
2022/09/22 03:12:08;;;;;;;2.08;1.20;;;8.30;99.90;;;;;;4861929;29;20030;-63
2022/09/22 03:14:34;;;;;;;0.98;0.80;;;8.20;99.90;;;;;;4857228;29;20042;-63
2022/09/22 03:17:00;;;;;;;1.20;0.90;;;8.20;99.90;;;;;;4861814;29;20521;-63
2022/09/22 03:19:26;;;;;;;1.60;1.15;;;8.10;99.90;;;;;;4863517;29;20506;-63
2022/09/22 03:21:52;;;;;;;1.98;1.60;;;8.10;99.90;;;;;;4980874;28;20089;-63
2022/09/22 03:24:17;;;;;;;1.42;1.17;;;8.10;99.90;;;;;;4989617;28;20471;-63
2022/09/22 03:26:43;;;;;;;1.50;1.10;;;8.10;99.90;;;;;;4988461;28;20031;-64
2022/09/22 03:29:09;;;;;;;1.77;1.40;;;8.10;99.90;;;;;;4990459;28;20387;-63
2022/09/22 03:31:35;;;;;;;2.50;1.90;;;8.10;99.90;;;;;;4992068;28;20494;-63
2022/09/22 03:34:00;;;;;;;1.20;1.00;;;8.10;99.90;;;;;;4988944;28;20048;-63
2022/09/22 03:36:26;;;;;;;2.00;1.65;;;8.00;99.90;;;;;;4983516;28;20034;-64
2022/09/22 03:38:52;;;;;;;1.23;0.80;;;8.10;99.90;;;;;;4990691;28;20042;-63
2022/09/22 03:41:18;;;;;;;1.98;1.30;;;8.00;99.90;;;;;;4988739;28;20057;-64
2022/09/22 03:43:44;;;;;;;3.08;2.05;;;8.00;99.90;;;;;;5000877;23;20046;-60
2022/09/22 03:46:10;;;;;;;2.88;2.10;;;8.10;99.90;;;;;;4985426;28;20108;-59
2022/09/22 03:48:37;;;;;;;2.50;1.60;;;8.00;99.90;;;;;;4989779;28;20057;-59
2022/09/22 03:51:03;;;;;;;1.73;1.30;;;8.00;99.90;;;;;;4995696;28;20034;-60
2022/09/22 03:53:29;;;;;;;1.80;1.23;;;8.00;99.90;;;;;;4992502;28;20731;-60
2022/09/22 03:56:04;;;;;;;4.75;1.33;;;8.00;99.90;;;;;;5000639;28;20137;-60
2022/09/22 03:58:30;;;;;;;1.75;1.40;;;7.90;99.90;;;;;;4982567;28;20105;-60
2022/09/22 04:00:56;;;;;;;1.10;1.00;;;7.90;99.90;;;;;;5000830;28;20482;-60
2022/09/22 04:03:23;;;;;;;1.73;1.50;;;7.90;99.90;;;;;;4983890;28;20030;-61
2022/09/22 04:05:50;;;;;;;2.30;1.40;;;7.80;99.90;;;;;;4995528;28;20140;-60
2022/09/22 04:08:16;;;;;;;2.30;1.58;;;7.80;99.90;;;;;;4991094;28;20084;-60
2022/09/22 04:10:46;;;;;;;1.83;1.20;;;7.80;99.90;;;;;;4987042;28;20022;-61
2022/09/22 04:13:13;;;;;;;1.50;0.75;;;7.70;99.90;;;;;;4988311;28;20035;-60
2022/09/22 04:15:39;;;;;;;1.85;1.10;;;7.70;99.90;;;;;;4988369;28;20029;-61
2022/09/22 04:18:05;;;;;;;3.88;1.80;;;7.60;99.90;;;;;;4986722;28;20042;-60
2022/09/22 04:20:31;;;;;;;1.67;1.35;;;7.70;99.90;;;;;;4989703;28;20029;-60
2022/09/22 04:22:57;;;;;;;1.98;1.40;;;7.60;99.90;;;;;;4995545;28;20037;-60
2022/09/22 04:25:23;;;;;;;1.15;1.05;;;7.60;99.90;;;;;;4986790;28;20045;-60
2022/09/22 04:27:49;;;;;;;1.58;1.13;;;7.60;99.90;;;;;;4985710;28;20030;-60
2022/09/22 04:30:14;;;;;;;0.80;0.75;;;7.60;99.90;;;;;;4991826;28;20027;-60
2022/09/22 04:32:40;;;;;;;1.48;1.13;;;7.60;99.90;;;;;;4993477;28;20109;-60
2022/09/22 04:35:07;;;;;;;1.27;1.00;;;7.60;99.90;;;;;;4992845;28;20026;-60
2022/09/22 04:37:33;;;;;;;1.88;1.00;;;7.60;99.90;;;;;;4991139;28;20399;-60
2022/09/22 04:39:59;;;;;;;1.52;1.40;;;7.60;99.90;;;;;;5001689;28;20030;-60
2022/09/22 04:42:25;;;;;;;1.90;1.35;;;7.60;99.90;;;;;;4987809;28;20070;-60
2022/09/22 04:44:50;;;;;;;2.40;1.30;;;7.60;99.90;;;;;;5000296;28;20030;-60
2022/09/22 04:47:16;;;;;;;1.35;0.93;;;7.70;99.90;;;;;;4989279;28;20030;-60
2022/09/22 04:49:42;;;;;;;1.00;0.70;;;7.70;99.90;;;;;;4997481;28;20439;-60
2022/09/22 04:52:08;;;;;;;4.10;1.10;;;7.70;99.90;;;;;;5004341;28;20044;-60
2022/09/22 04:54:34;;;;;;;1.85;1.20;;;7.70;99.90;;;;;;4997072;28;20026;-60
2022/09/22 04:57:00;;;;;;;1.52;1.13;;;7.70;99.90;;;;;;4997398;28;20030;-59
2022/09/22 04:59:26;;;;;;;1.42;1.17;;;7.70;99.90;;;;;;4995004;28;20044;-60
2022/09/22 05:01:52;;;;;;;1.77;1.08;;;7.60;99.90;;;;;;5005267;28;20373;-59
2022/09/22 05:04:18;;;;;;;1.50;1.30;;;7.60;99.90;;;;;;4992665;28;20034;-60
2022/09/22 05:06:43;;;;;;;2.53;1.63;;;7.60;99.90;;;;;;4991077;28;20436;-60
2022/09/22 05:09:09;;;;;;;1.90;1.40;;;7.60;99.90;;;;;;4995006;28;20042;-60
2022/09/22 05:11:35;;;;;;;2.17;1.40;;;7.60;99.90;;;;;;4996587;28;20031;-60
2022/09/22 05:14:01;;;;;;;1.00;0.80;;;7.60;99.90;;;;;;5002003;28;20091;-60
2022/09/22 05:16:27;;;;;;;2.22;1.90;;;7.60;99.90;;;;;;4981899;28;20038;-60
2022/09/22 05:18:53;;;;;;;2.20;1.27;;;7.60;99.90;;;;;;5002444;28;20037;-60
2022/09/22 05:21:18;;;;;;;1.88;1.25;;;7.70;99.90;;;;;;4993624;28;20494;-61
2022/09/22 05:23:45;;;;;;;1.38;1.10;;;7.70;99.90;;;;;;5002947;28;20021;-61
2022/09/22 05:26:11;;;;;;;10.50;1.35;;;7.70;99.90;;;;;;4992784;28;20374;-61
2022/09/22 05:28:36;;;;;;;1.58;1.05;;;7.80;99.90;;;;;;4995348;28;20034;-61
2022/09/22 05:31:03;;;;;;;2.63;1.30;;;7.80;99.90;;;;;;4989930;28;20031;-60
2022/09/22 05:33:28;;;;;;;1.02;0.90;;;7.80;99.90;;;;;;4995063;28;20030;-61
2022/09/22 05:35:54;;;;;;;3.20;1.02;;;7.80;99.90;;;;;;4993399;28;20041;-60
2022/09/22 05:38:20;;;;;;;1.40;1.20;;;7.80;99.90;;;;;;4996855;28;20046;-61
2022/09/22 05:40:46;;;;;;;1.90;1.10;;;7.80;99.90;;;;;;4996872;28;20125;-62
2022/09/22 05:43:12;;;;;;;2.38;1.42;;;7.80;99.90;;;;;;4997060;28;20100;-61
2022/09/22 05:45:38;;;;;;;3.92;2.00;;;7.90;99.90;;;;;;4993569;28;20066;-61
2022/09/22 05:48:04;;;;;;;2.97;1.75;;;7.90;99.90;;;;;;5008065;28;20519;-61
2022/09/22 05:50:30;;;;;;;1.60;1.50;;;7.80;99.90;;;;;;4996706;28;20092;-61
2022/09/22 05:53:09;;;;;;;1.58;1.40;;;7.80;99.90;;;;;;4996060;28;20066;-61
2022/09/22 05:55:36;;;;;;;1.58;1.20;;;7.90;99.90;;;;;;4996470;28;20030;-60
2022/09/22 05:58:02;;;;;;;1.70;1.13;;;7.90;99.90;;;;;;4999010;28;20101;-60
2022/09/22 06:00:28;;;;;;;2.42;1.58;;;7.90;99.90;;;;;;4988228;28;20034;-59
2022/09/22 06:02:54;;;;;;;3.25;1.95;;;7.90;99.90;;;;;;4992672;28;20081;-60
2022/09/22 06:05:20;;;;;;;1.65;1.30;;;7.90;99.90;;;;;;4998033;28;20034;-61
2022/09/22 06:07:47;;;;;;;2.35;1.35;;;7.90;99.90;;;;;;4999434;28;20038;-61
2022/09/22 06:10:14;;;;;;;2.75;1.60;;;7.90;99.90;;;;;;5003912;28;20545;-61
2022/09/22 06:12:39;;;;;;;4.63;2.10;;;8.00;99.90;;;;;;5000749;28;20034;-60
2022/09/22 06:15:05;;;;;;;2.47;2.10;;;8.00;99.90;;;;;;4995166;28;20088;-61
2022/09/22 06:17:31;;;;;;;3.70;1.95;;;8.10;99.90;;;;;;4993302;28;20038;-60
2022/09/22 06:19:59;;;;;;;3.22;1.70;;;8.10;99.90;;;;;;4992819;28;20359;-60
2022/09/22 06:22:25;;;;;;;1.95;1.40;;;8.10;99.90;;;;;;4993337;28;20041;-60
2022/09/22 06:24:51;;;;;;;3.78;2.20;;;8.20;99.90;;;;;;4996195;28;20023;-61
2022/09/22 06:27:17;;;;;;;2.85;1.83;;;8.20;99.90;;;;;;5002611;28;20397;-60
2022/09/22 06:29:43;;;;;;;4.93;1.52;;;8.20;99.90;;;;;;4994790;28;20022;-60
2022/09/22 06:32:09;;;;;;;3.67;1.38;;;8.20;99.90;;;;;;5002578;28;20041;-61
2022/09/22 06:34:36;;;;;;;3.05;1.60;;;8.20;99.90;;;;;;4994515;28;20475;-60
2022/09/22 06:37:06;;;;;;;2.50;1.50;;;8.20;99.90;;;;;;5001505;28;20022;-60
2022/09/22 06:39:31;;;;;;;2.08;1.10;;;8.20;99.90;;;;;;5000794;28;20057;-60
2022/09/22 06:41:59;;;;;;;2.33;1.35;;;8.30;99.90;;;;;;4992210;28;20423;-59
2022/09/22 06:44:26;;;;;;;1.35;1.17;;;8.30;99.90;;;;;;4998781;28;20457;-59
2022/09/22 06:46:51;;;;;;;2.00;1.45;;;8.40;99.90;;;;;;4997891;28;20022;-60
2022/09/22 06:49:17;;;;;;;2.70;1.35;;;8.40;99.90;;;;;;4992372;28;20032;-61
2022/09/22 06:51:43;;;;;;;2.67;1.65;;;8.30;99.90;;;;;;4995805;28;20026;-60
2022/09/22 06:54:08;;;;;;;1.42;1.30;;;8.40;99.90;;;;;;4996004;28;20050;-60
2022/09/22 06:56:41;;;;;;;2.83;1.35;;;8.50;99.90;;;;;;4997008;28;20029;-60
2022/09/22 06:59:11;;;;;;;2.92;1.10;;;8.60;99.90;;;;;;4991301;28;20046;-60
2022/09/22 07:01:42;;;;;;;1.83;1.20;;;8.60;99.90;;;;;;4997244;28;20017;-60
2022/09/22 07:04:08;;;;;;;2.75;1.83;;;8.70;99.90;;;;;;4994031;28;20038;-60
2022/09/22 07:06:36;;;;;;;1.30;1.02;;;8.80;99.90;;;;;;4997555;28;20386;-61
2022/09/22 07:09:03;;;;;;;2.13;1.67;;;8.90;99.90;;;;;;4996570;28;20034;-60
2022/09/22 07:11:29;;;;;;;1.92;1.40;;;9.00;99.90;;;;;;4989847;28;20102;-61
2022/09/22 07:13:57;;;;;;;3.03;1.85;;;9.00;99.90;;;;;;5002444;28;20117;-61
2022/09/22 07:16:24;;;;;;;1.63;1.20;;;9.10;99.90;;;;;;4992183;28;20494;-61
2022/09/22 07:18:52;;;;;;;2.15;1.35;;;9.20;99.90;;;;;;4993855;28;20080;-61
2022/09/22 07:21:21;;;;;;;1.98;1.77;;;9.30;99.90;;;;;;4991152;28;20030;-61
2022/09/22 07:23:48;;;;;;;1.30;1.20;;;9.50;99.90;;;;;;4985347;28;20386;-60
2022/09/22 07:26:19;;;;;;;2.35;1.70;;;9.50;99.90;;;;;;4983989;28;20505;-63
2022/09/22 07:28:49;;;;;;;2.20;1.50;;;9.70;99.90;;;;;;4988006;28;20029;-61
2022/09/22 07:31:16;;;;;;;2.78;1.65;;;9.70;99.90;;;;;;4989235;28;20125;-59
2022/09/22 07:33:44;;;;;;;2.17;1.70;;;9.90;99.90;;;;;;4992208;28;20089;-61
2022/09/22 07:36:32;;;;;;;3.40;1.85;;;10.00;99.90;;;;;;4993617;28;20028;-61
2022/09/22 07:39:06;;;;;;;2.97;1.90;;;10.10;99.90;;;;;;4997707;28;20520;-60
2022/09/22 07:41:40;;;;;;;4.07;2.53;;;10.30;99.90;;;;;;4988225;28;20116;-60
2022/09/22 07:46:51;;;;;;;1.65;1.45;;;10.60;99.90;;;;;;4993356;28;20405;-60
2022/09/22 07:49:19;;;;;;;2.78;1.73;;;10.80;99.90;;;;;;4993826;28;20470;-60
2022/09/22 07:51:44;;;;;;;3.55;1.63;;;11.00;99.90;;;;;;4993758;28;20600;-61
2022/09/22 07:54:10;;;;;;;3.58;1.90;;;11.20;99.90;;;;;;4993004;28;20125;-60
2022/09/22 07:56:41;;;;;;;2.70;1.85;;;11.50;99.90;;;;;;5001951;28;20034;-61
2022/09/22 07:59:10;;;;;;;2.40;1.73;;;11.80;99.90;;;;;;4986845;28;20038;-60
2022/09/22 08:01:40;;;;;;;3.50;1.63;;;12.00;99.90;;;;;;4988147;28;20030;-62
2022/09/22 08:04:11;;;;;;;2.00;1.55;;;12.20;99.90;;;;;;4988769;28;20145;-60
2022/09/22 08:06:37;;;;;;;1.83;1.15;;;12.30;99.90;;;;;;4987350;28;20634;-61
2022/09/22 08:09:03;;;;;;;3.20;1.85;;;12.40;99.90;;;;;;4986858;28;20026;-60
2022/09/22 08:11:29;;;;;;;2.78;1.85;;;12.50;99.90;;;;;;4983825;28;20026;-60
2022/09/22 08:14:03;;;;;;;3.60;1.60;;;12.70;99.90;;;;;;4986864;28;20081;-61
2022/09/22 08:16:39;;;;;;;2.22;1.58;;;12.80;99.90;;;;;;4981868;28;20038;-61
2022/09/22 08:19:11;;;;;;;2.42;1.25;;;12.80;99.90;;;;;;4977263;28;20049;-62
2022/09/22 08:21:45;;;;;;;4.95;1.98;;;12.90;99.90;;;;;;4985947;28;20038;-61
2022/09/22 08:24:13;;;;;;;2.03;1.77;;;13.00;99.90;;;;;;4983148;28;20045;-61
2022/09/22 08:26:42;;;;;;;3.60;1.70;;;13.00;99.90;;;;;;4985992;28;20041;-61
2022/09/22 08:29:09;;;;;;;2.92;1.63;;;13.20;99.90;;;;;;4986446;28;20018;-62
2022/09/22 08:31:35;;;;;;;3.50;1.85;;;13.40;99.90;;;;;;4982271;28;20368;-61
2022/09/22 08:34:03;;;;;;;2.67;1.75;;;13.50;99.90;;;;;;4984276;28;20027;-61
2022/09/22 08:36:29;;;;;;;2.92;1.77;;;13.60;99.90;;;;;;4981758;28;20030;-61
2022/09/22 08:38:58;;;;;;;3.05;1.70;;;13.70;99.90;;;;;;4988550;28;20467;-61
2022/09/22 08:41:38;;;;;;;2.35;1.48;;;13.90;99.90;;;;;;4991308;28;20044;-61
2022/09/22 08:44:09;;;;;;;2.75;1.85;;;14.00;99.90;;;;;;4980975;28;20056;-61
2022/09/22 08:46:43;;;;;;;2.08;1.60;;;14.20;99.90;;;;;;4980207;28;20022;-60
2022/09/22 08:52:37;;;;;;;2.30;1.50;;;14.40;99.90;;;;;;4983767;28;20776;-63
2022/09/22 08:55:09;;;;;;;3.30;2.42;;;14.60;99.90;;;;;;4982451;28;20491;-63
2022/09/22 08:57:59;;;;;;;2.47;1.70;;;14.70;99.90;;;;;;4985918;28;20097;-63
2022/09/22 09:00:33;;;;;;;2.47;1.33;;;14.90;99.90;;;;;;4987052;28;20062;-64
2022/09/22 09:03:15;;;;;;;3.17;1.80;;;15.10;99.90;;;;;;4986849;28;20023;-62
2022/09/22 09:06:10;;;;;;;4.63;1.80;;;15.20;99.90;;;;;;4987010;28;20030;-63
2022/09/22 09:09:09;;;;;;;2.53;1.85;;;15.30;99.90;;;;;;4991591;28;20499;-62
2022/09/22 09:11:53;;;;;;;4.13;1.92;;;15.50;99.90;;;;;;4987349;28;20057;-63
2022/09/22 09:15:06;;;;;;;3.55;2.42;;;15.60;99.90;;;;;;4982906;28;20042;-63
2022/09/22 09:17:37;;;;;;;6.63;3.47;;;15.70;99.90;;;;;;4978148;28;20561;-63
2022/09/22 09:20:35;;;;;;;4.90;2.47;;;15.90;99.90;;;;;;4984220;28;20502;-63
2022/09/22 09:23:08;;;;;;;3.83;2.42;;;16.00;99.90;;;;;;4990447;28;20085;-66
2022/09/22 09:25:41;;;;;;;5.30;2.40;;;16.00;99.90;;;;;;4987591;28;20560;-63
2022/09/22 09:28:14;;;;;;;6.35;2.40;;;16.10;99.90;;;;;;4983756;28;20137;-63
2022/09/22 09:30:48;;;;;;;4.57;2.35;;;16.20;99.90;;;;;;4992146;28;20022;-64
2022/09/22 09:33:22;;;;;;;3.83;2.47;;;16.30;99.90;;;;;;4978569;28;20038;-63
2022/09/22 09:35:50;;;;;;;6.85;2.90;;;16.40;99.90;;;;;;4995458;28;20454;-62
2022/09/22 09:38:24;;;;;;;2.55;1.48;;;16.50;99.90;;;;;;4990441;28;20132;-63
2022/09/22 09:40:54;;;;;;;2.67;1.90;;;16.70;99.90;;;;;;4989118;28;20042;-63
2022/09/22 09:43:26;;;;;;;3.72;1.35;;;16.80;99.90;;;;;;4988685;28;20533;-62
2022/09/22 09:46:25;;;;;;;6.93;1.58;;;17.00;99.90;;;;;;4989669;28;20034;-63
2022/09/22 09:49:04;;;;;;;1.98;1.15;;;17.50;99.90;;;;;;4982994;28;20030;-62
2022/09/22 09:51:35;;;;;;;5.28;1.10;;;17.90;99.90;;;;;;4987560;28;20037;-64
2022/09/22 09:54:05;;;;;;;1.10;0.52;;;18.20;99.90;;;;;;4990063;28;20064;-62
2022/09/22 09:56:35;;;;;;;1.52;0.60;;;18.40;99.90;;;;;;4991052;28;20992;-62
2022/09/22 10:01:53;;;;;;;0.98;0.47;;;19.00;99.90;;;;;;4984899;28;20033;-63
2022/09/22 10:04:37;;;;;;;0.88;0.47;;;19.40;99.90;;;;;;4986074;28;20049;-62
2022/09/22 10:07:22;;;;;;;0.57;0.40;;;19.60;99.90;;;;;;4988656;28;20435;-63
2022/09/22 10:09:49;;;;;;;0.85;0.40;;;19.90;99.90;;;;;;4981120;28;20078;-63
2022/09/22 10:12:32;;;;;;;0.73;0.50;;;20.10;99.90;;;;;;4987566;28;20505;-63
2022/09/22 10:15:00;;;;;;;2.00;0.93;;;20.00;99.90;;;;;;4992396;28;20375;-62
2022/09/22 10:17:32;;;;;;;1.00;0.80;;;19.90;99.90;;;;;;4992444;28;20077;-61
2022/09/22 10:20:19;;;;;;;1.15;0.70;;;19.90;99.90;;;;;;4986306;28;20034;-62
2022/09/22 10:22:45;;;;;;;0.73;0.30;;;19.80;99.90;;;;;;4992036;28;20024;-62
2022/09/22 10:25:24;;;;;;;3.20;0.80;;;19.90;99.90;;;;;;4996169;28;20125;-64
2022/09/22 10:28:01;;;;;;;0.60;0.38;;;20.00;99.90;;;;;;4990875;28;20490;-63
2022/09/22 10:30:32;;;;;;;1.00;0.60;;;19.90;99.90;;;;;;4990503;28;20512;-63
2022/09/22 10:33:16;;;;;;;0.20;0.20;;;20.10;99.90;;;;;;4991414;28;20026;-63
2022/09/22 10:35:55;;;;;;;1.95;0.77;;;20.00;99.90;;;;;;4986499;28;20045;-64
2022/09/22 10:38:28;;;;;;;2.30;0.50;;;20.00;99.90;;;;;;4989930;28;20502;-64
2022/09/22 10:41:16;;;;;;;1.95;1.20;;;20.00;99.90;;;;;;4991086;28;20113;-62
2022/09/22 10:44:00;;;;;;;0.50;0.47;;;20.00;99.90;;;;;;4983689;28;20096;-63
2022/09/22 10:46:56;;;;;;;0.77;0.60;;;19.80;99.90;;;;;;4989126;28;20592;-64
2022/09/22 10:49:43;;;;;;;4.07;0.77;;;19.80;99.90;;;;;;4986633;28;20030;-63
2022/09/22 10:52:54;;;;;;;0.52;0.45;;;19.80;99.90;;;;;;4987792;28;20034;-63
2022/09/22 10:55:34;;;;;;;2.95;0.70;;;19.50;99.90;;;;;;4943727;28;20066;-63
2022/09/22 10:58:03;;;;;;;0.32;0.30;;;19.50;99.90;;;;;;4946151;29;20479;-63
2022/09/22 11:00:33;;;;;;;0.70;0.50;;;19.40;99.90;;;;;;4945568;28;20074;-63
2022/09/22 11:03:21;;;;;;;1.25;0.95;;;19.20;99.90;;;;;;4946567;28;20050;-63
2022/09/22 11:12:16;;;;;;;1.38;0.63;;;18.70;99.90;;;;;;4931337;28;20114;-64
2022/09/22 11:15:12;;;;;;;1.85;0.52;;;18.70;99.90;;;;;;4947543;29;20031;-64
2022/09/22 11:17:59;;;;;;;0.68;0.60;;;18.60;99.90;;;;;;4945497;28;20380;-63
2022/09/22 11:20:35;;;;;;;6.82;1.25;;;18.40;99.90;;;;;;4941463;28;20056;-62
2022/09/22 11:23:11;;;;;;;2.80;0.52;;;18.40;99.90;;;;;;4945615;29;20063;-63
2022/09/22 11:25:45;;;;;;;1.33;0.75;;;18.50;99.90;;;;;;4942557;29;20392;-63
2022/09/22 11:28:17;;;;;;;1.55;0.73;;;18.70;99.90;;;;;;4937916;28;20483;-62
2022/09/22 11:30:50;;;;;;;0.75;0.57;;;18.70;99.90;;;;;;4986824;28;20026;-63
2022/09/22 11:33:38;;;;;;;0.40;0.40;;;18.70;99.90;;;;;;4983875;28;20056;-63
2022/09/22 11:36:12;;;;;;;1.02;0.80;;;18.70;99.90;;;;;;4986221;28;20125;-63
2022/09/22 11:38:49;;;;;;;1.17;0.90;;;18.60;99.90;;;;;;4988828;28;20260;-62
2022/09/22 11:41:36;;;;;;;1.63;0.57;;;18.50;99.90;;;;;;4986483;28;20122;-61
2022/09/22 11:44:12;;;;;;;1.33;0.75;;;18.50;99.90;;;;;;4984088;28;20046;-63
2022/09/22 11:46:54;;;;;;;0.63;0.50;;;18.60;99.90;;;;;;4985023;28;20096;-63
2022/09/22 11:49:46;;;;;;;1.42;0.90;;;18.70;99.90;;;;;;4983307;28;20741;-62
2022/09/22 11:52:18;;;;;;;0.35;0.35;;;18.80;99.90;;;;;;4985117;28;20050;-63
2022/09/22 11:54:45;;;;;;;0.73;0.50;;;18.90;99.90;;;;;;4984740;28;20121;-63
2022/09/22 11:57:16;;;;;;;2.10;0.95;;;19.00;99.90;;;;;;4984754;28;20049;-63
2022/09/22 12:00:23;;;;;;;0.65;0.38;;;19.10;99.90;;;;;;4987004;28;20524;-62
2022/09/22 12:02:57;;;;;;;0.88;0.70;;;19.10;99.90;;;;;;4974014;28;20046;-62
2022/09/22 12:05:47;;;;;;;0.55;0.38;;;19.30;99.90;;;;;;4984098;28;20393;-63
2022/09/22 12:08:21;;;;;;;1.38;0.47;;;19.30;99.90;;;;;;4983325;28;20112;-63
2022/09/22 12:10:49;;;;;;;0.32;0.32;;;19.30;99.90;;;;;;4986380;28;20457;-63
2022/09/22 12:13:28;;;;;;;1.00;0.70;;;19.40;99.90;;;;;;4985234;28;20022;-62
2022/09/22 12:15:53;;;;;;;0.32;0.32;;;19.40;99.90;;;;;;4981091;28;20038;-63
2022/09/22 12:18:28;;;;;;;0.43;0.30;;;19.50;99.90;;;;;;4981894;28;20489;-63
2022/09/22 12:21:18;;;;;;;0.45;0.43;;;19.60;99.90;;;;;;4989216;28;20364;-63
2022/09/22 12:23:49;;;;;;;1.13;0.25;;;19.80;99.90;;;;;;4984889;28;20041;-63
2022/09/22 12:26:31;;;;;;;2.05;0.55;;;20.30;99.90;;;;;;4976147;28;20031;-62
2022/09/22 12:28:58;;;;;;;0.50;0.50;;;20.30;99.90;;;;;;4989035;28;20038;-62
2022/09/22 12:31:39;;;;;;;0.95;0.75;;;20.60;99.90;;;;;;4984661;28;20038;-63
2022/09/22 12:34:24;;;;;;;0.25;0.25;;;20.30;99.90;;;;;;4988394;28;20088;-62
2022/09/22 12:37:07;;;;;;;1.77;0.65;;;20.20;99.90;;;;;;4986593;28;20072;-64
2022/09/22 12:39:40;;;;;;;1.95;0.20;;;20.30;99.90;;;;;;4984355;28;20401;-63
2022/09/22 12:42:17;;;;;;;0.40;0.30;;;20.80;99.90;;;;;;4979001;28;20117;-63
2022/09/22 12:44:52;;;;;;;0.63;0.40;;;20.90;99.90;;;;;;4980794;28;20124;-62
2022/09/22 12:47:32;;;;;;;3.00;0.30;;;20.90;99.90;;;;;;4985057;28;20031;-63
2022/09/22 12:50:00;;;;;;;2.25;0.40;;;20.90;99.90;;;;;;4985033;28;20112;-63
2022/09/22 12:52:41;;;;;;;0.47;0.40;;;20.90;99.90;;;;;;4986495;28;20057;-62
2022/09/22 12:55:42;;;;;;;0.50;0.20;;;20.80;99.90;;;;;;4987996;28;20133;-62
2022/09/22 12:58:20;;;;;;;2.13;0.32;;;20.90;99.90;;;;;;4983131;28;20053;-61
2022/09/22 13:00:47;;;;;;;0.57;0.40;;;21.00;99.90;;;;;;4975526;28;20531;-64
2022/09/22 13:03:25;;;;;;;0.30;0.28;;;21.60;99.90;;;;;;4979113;28;20030;-64
2022/09/22 13:06:15;;;;;;;1.05;0.55;;;22.20;99.90;;;;;;4982461;28;20075;-63
2022/09/22 13:09:04;;;;;;;2.22;0.32;;;22.20;99.90;;;;;;4943163;28;20160;-63
2022/09/22 13:12:07;;;;;;;1.65;0.77;;;21.60;99.90;;;;;;4945354;28;20062;-61
2022/09/22 13:14:56;;;;;;;0.40;0.30;;;21.60;99.90;;;;;;4942293;28;20074;-62
2022/09/22 13:17:44;;;;;;;0.50;0.20;;;21.40;99.90;;;;;;4945915;28;20027;-63
2022/09/22 13:20:21;;;;;;;0.20;0.20;;;21.60;99.90;;;;;;4939301;28;20039;-64
2022/09/22 13:22:47;;;;;;;2.05;0.50;;;22.20;99.90;;;;;;4949489;28;20058;-64
2022/09/22 13:25:16;;;;;;;0.57;0.30;;;22.70;99.90;;;;;;4947138;28;20503;-63
2022/09/22 13:27:42;;;;;;;0.75;0.25;;;23.40;98.50;;;;;;4951915;28;20027;-63
2022/09/22 13:30:14;;;;;;;0.20;0.20;;;22.90;98.10;;;;;;4947587;28;20414;-63
2022/09/22 13:32:48;;;;;;;0.93;0.40;;;23.40;97.90;;;;;;4933155;29;20036;-63
2022/09/22 13:35:39;;;;;;;0.68;0.40;;;23.50;97.00;;;;;;4924961;29;20384;-63